Time;durP1;ratioP1;P1;durP2;ratioP2;P2;SDS_P1;SDS_P2;PMS_P1;PMS_P2;Temp;Humidity;BMP_temperature;BMP_pressure;BME280_temperature;BME280_humidity;BME280_pressure;Samples;Min_cycle;Max_cycle;Signal;HPM_P1;HPM_P2
2023/08/06 00:00:28;;;;;;;8.40;7.80;;;;;;;15.14;93.75;100190.16;5015578;28;20620;-70
2023/08/06 00:02:55;;;;;;;8.30;7.60;;;;;;;15.16;93.51;100190.78;5015184;28;20660;-70
2023/08/06 00:05:22;;;;;;;8.33;8.03;;;;;;;15.13;93.67;100183.09;5015498;28;20180;-70
2023/08/06 00:07:50;;;;;;;7.93;7.43;;;;;;;15.14;93.48;100180.22;5015128;28;20255;-70
2023/08/06 00:10:17;;;;;;;6.93;6.83;;;;;;;15.11;93.62;100185.97;5015687;28;20177;-70
2023/08/06 00:12:44;;;;;;;6.13;6.03;;;;;;;15.11;93.43;100179.78;5015161;28;20220;-70
2023/08/06 00:15:11;;;;;;;6.40;6.10;;;;;;;15.10;93.52;100181.63;5015294;28;20613;-70
2023/08/06 00:17:37;;;;;;;6.03;5.53;;;;;;;15.08;93.33;100171.06;5015203;28;20184;-70
2023/08/06 00:20:05;;;;;;;6.13;6.03;;;;;;;15.09;93.63;100169.19;5015229;28;20598;-70
2023/08/06 00:22:33;;;;;;;6.00;5.50;;;;;;;15.09;93.60;100166.50;5014876;28;20184;-70
2023/08/06 00:25:00;;;;;;;5.87;5.77;;;;;;;15.08;93.68;100167.53;5014750;28;20717;-70
2023/08/06 00:27:26;;;;;;;11.63;6.70;;;;;;;15.09;93.44;100163.81;5014839;28;20188;-70
2023/08/06 00:29:53;;;;;;;6.13;6.03;;;;;;;15.06;93.72;100170.41;5013045;28;20189;-70
2023/08/06 00:32:19;;;;;;;6.07;5.93;;;;;;;15.06;93.45;100165.00;5015174;28;20255;-70
2023/08/06 00:34:46;;;;;;;7.17;6.90;;;;;;;15.02;93.63;100157.53;5014606;28;20213;-70
2023/08/06 00:37:13;;;;;;;6.47;6.03;;;;;;;15.02;93.71;100165.63;5014964;28;20251;-70
2023/08/06 00:39:39;;;;;;;5.73;5.53;;;;;;;15.02;93.73;100158.34;5014562;28;20188;-70
2023/08/06 00:42:06;;;;;;;6.10;6.00;;;;;;;15.03;94.02;100153.81;5014529;28;20208;-70
2023/08/06 00:44:32;;;;;;;7.50;6.10;;;;;;;15.01;93.48;100145.94;5013205;28;20278;-70
2023/08/06 00:47:01;;;;;;;6.93;6.53;;;;;;;15.02;93.63;100158.34;5013161;28;20195;-70
2023/08/06 00:49:27;;;;;;;6.23;5.93;;;;;;;15.02;93.73;100160.25;5015023;28;20254;-70
2023/08/06 00:51:56;;;;;;;5.83;5.67;;;;;;;15.00;93.51;100154.19;5013039;28;20216;-70
2023/08/06 00:54:24;;;;;;;5.43;5.37;;;;;;;14.96;93.45;100152.94;5014521;28;20695;-70
2023/08/06 00:56:51;;;;;;;6.13;5.83;;;;;;;14.94;93.75;100149.56;5013043;28;20188;-70
2023/08/06 00:59:17;;;;;;;5.53;5.43;;;;;;;14.92;93.58;100139.03;5014267;28;20193;-70
2023/08/06 01:01:45;;;;;;;6.03;5.73;;;;;;;14.90;93.60;100140.22;5014472;28;20196;-70
2023/08/06 01:04:12;;;;;;;12.97;6.50;;;;;;;14.88;93.62;100150.38;5012850;28;20300;-70
2023/08/06 01:06:47;;;;;;;5.60;5.50;;;;;;;14.88;93.68;100139.59;5014340;28;20725;-70
2023/08/06 01:09:42;;;;;;;5.83;5.73;;;;;;;14.87;93.72;100132.56;5014677;28;20180;-70
2023/08/06 01:12:23;;;;;;;5.93;5.53;;;;;;;14.87;93.72;100127.16;5013981;28;20219;-70
2023/08/06 01:15:24;;;;;;;6.77;6.47;;;;;;;14.87;93.63;100132.56;5012737;28;20212;-70
2023/08/06 01:17:52;;;;;;;5.50;5.27;;;;;;;14.89;93.53;100122.44;5013874;28;20682;-70
2023/08/06 01:20:18;;;;;;;6.53;6.03;;;;;;;14.89;93.94;100125.97;5013909;28;20203;-70
2023/08/06 01:22:45;;;;;;;6.43;5.67;;;;;;;14.90;93.76;100124.91;5013882;28;20226;-70
2023/08/06 01:25:16;;;;;;;6.47;5.80;;;;;;;14.92;93.37;100122.88;5014112;28;20187;-70
2023/08/06 01:27:54;;;;;;;6.10;6.00;;;;;;;14.95;93.49;100130.56;5012575;28;20738;-70
2023/08/06 01:30:30;;;;;;;7.50;6.93;;;;;;;14.95;93.31;100127.03;5013790;28;20181;-70
2023/08/06 01:33:04;;;;;;;6.57;5.97;;;;;;;14.95;93.59;100122.47;5012351;28;20687;-70
2023/08/06 01:35:33;;;;;;;6.60;6.40;;;;;;;14.95;93.51;100116.25;5014297;28;20164;-70
2023/08/06 01:38:03;;;;;;;5.60;5.27;;;;;;;14.96;93.90;100116.06;5013562;28;20192;-70
2023/08/06 01:40:30;;;;;;;5.67;5.47;;;;;;;14.96;93.47;100121.47;5012218;28;20189;-70
2023/08/06 01:42:56;;;;;;;5.77;5.67;;;;;;;14.96;93.87;100121.47;5011796;28;20239;-70
2023/08/06 01:45:23;;;;;;;8.10;7.37;;;;;;;14.95;93.31;100117.09;5013656;28;20219;-70
2023/08/06 01:47:49;;;;;;;6.70;6.43;;;;;;;14.92;93.07;100114.81;5012425;28;20197;-70
2023/08/06 01:50:16;;;;;;;7.33;7.20;;;;;;;14.93;93.64;100107.56;5012421;28;20203;-70
2023/08/06 01:52:44;;;;;;;7.33;7.03;;;;;;;14.92;93.49;100104.03;5013467;28;20196;-70
2023/08/06 01:55:10;;;;;;;7.73;7.20;;;;;;;14.94;93.60;100106.50;5013735;28;20212;-70
2023/08/06 01:57:37;;;;;;;7.30;7.07;;;;;;;14.94;93.75;100103.81;5012214;28;20204;-70
2023/08/06 02:00:03;;;;;;;6.60;6.27;;;;;;;14.94;93.70;100103.81;5012210;28;20197;-70
2023/08/06 02:02:38;;;;;;;7.03;6.67;;;;;;;14.93;93.57;100105.72;5013457;28;20230;-70
2023/08/06 02:05:05;;;;;;;6.17;6.07;;;;;;;14.92;93.65;100100.50;5013314;28;20219;-70
2023/08/06 02:07:31;;;;;;;6.53;6.43;;;;;;;14.92;93.76;100098.66;5012182;28;20286;-70
2023/08/06 02:09:58;;;;;;;7.17;6.97;;;;;;;14.90;93.94;100098.00;5012100;28;20204;-70
2023/08/06 02:12:24;;;;;;;6.47;6.27;;;;;;;14.91;93.61;100101.53;5013147;28;20741;-70
2023/08/06 02:14:51;;;;;;;6.63;6.43;;;;;;;14.92;93.17;100103.19;5012008;28;20212;-70
2023/08/06 02:17:17;;;;;;;6.17;6.03;;;;;;;14.90;94.06;100106.06;5012039;28;20204;-70
2023/08/06 02:19:43;;;;;;;7.03;6.83;;;;;;;14.91;93.37;100096.16;5013290;28;20195;-70
2023/08/06 02:22:10;;;;;;;6.67;6.17;;;;;;;14.94;93.71;100101.13;5013516;28;20185;-70
2023/08/06 02:24:36;;;;;;;6.73;6.53;;;;;;;14.93;93.65;100094.09;5011942;28;20213;-69
2023/08/06 02:27:03;;;;;;;6.50;6.20;;;;;;;14.92;93.79;100090.59;5013480;28;20598;-69
2023/08/06 02:29:29;;;;;;;6.57;6.33;;;;;;;14.93;93.46;100092.25;5013156;28;20562;-69
2023/08/06 02:31:56;;;;;;;5.77;5.47;;;;;;;14.93;93.47;100096.78;5011826;28;20196;-69
2023/08/06 02:34:22;;;;;;;6.23;6.03;;;;;;;14.94;93.21;100087.66;5013321;28;20225;-70
2023/08/06 02:36:49;;;;;;;5.87;5.77;;;;;;;14.96;93.45;100083.78;5011830;28;20192;-70
2023/08/06 02:39:15;;;;;;;6.77;6.40;;;;;;;14.98;93.65;100086.25;5013361;28;20247;-70
2023/08/06 02:41:41;;;;;;;5.67;5.57;;;;;;;14.96;93.81;100083.78;5013322;28;20194;-70
2023/08/06 02:44:08;;;;;;;6.90;6.60;;;;;;;14.94;93.46;100077.75;5012956;28;20212;-70
2023/08/06 02:46:34;;;;;;;6.63;6.03;;;;;;;14.94;93.27;100069.66;5011740;28;20197;-70
2023/08/06 02:49:01;;;;;;;6.13;5.93;;;;;;;14.94;93.55;100069.66;5011742;28;20640;-70
2023/08/06 02:51:27;;;;;;;6.73;6.20;;;;;;;14.91;94.00;100072.75;5011714;28;20199;-70
2023/08/06 02:53:54;;;;;;;6.87;6.00;;;;;;;14.90;93.52;100072.94;5014229;28;20661;-70
2023/08/06 02:56:21;;;;;;;6.33;6.23;;;;;;;14.90;93.33;100072.94;5015229;28;20200;-70
2023/08/06 02:59:11;;;;;;;5.67;5.33;;;;;;;14.90;93.44;100065.69;5016672;28;20267;-70
2023/08/06 03:01:47;;;;;;;6.47;6.10;;;;;;;14.90;93.42;100062.19;5015492;28;20191;-70
2023/08/06 03:04:20;;;;;;;6.03;5.93;;;;;;;14.90;93.94;100063.00;5015355;28;20213;-70
2023/08/06 03:06:51;;;;;;;5.50;5.50;;;;;;;14.89;93.51;100047.91;5015114;28;20622;-70
2023/08/06 03:09:20;;;;;;;5.87;5.67;;;;;;;14.92;93.51;100044.00;5015630;28;20283;-70
2023/08/06 03:11:48;;;;;;;4.97;4.87;;;;;;;14.93;93.32;100046.50;5015728;28;20208;-70
2023/08/06 03:14:15;;;;;;;6.77;6.57;;;;;;;14.93;93.51;100045.66;5015493;28;20217;-70
2023/08/06 03:16:42;;;;;;;6.67;6.27;;;;;;;14.93;93.46;100042.97;5015458;28;20552;-70
2023/08/06 03:19:11;;;;;;;6.23;5.97;;;;;;;14.90;93.36;100046.88;5014828;28;20604;-70
2023/08/06 03:21:38;;;;;;;11.83;5.60;;;;;;;14.88;93.71;100048.09;5014796;28;20197;-70
2023/08/06 03:24:04;;;;;;;6.23;5.93;;;;;;;14.85;93.44;100040.44;5014756;28;20228;-70
2023/08/06 03:26:33;;;;;;;5.90;5.80;;;;;;;14.84;93.11;100044.97;5015550;28;20588;-70
2023/08/06 03:29:01;;;;;;;5.57;5.47;;;;;;;14.82;93.37;100038.94;5014695;28;20681;-70
2023/08/06 03:31:30;;;;;;;5.67;5.47;;;;;;;14.81;93.38;100042.66;5015796;28;20694;-70
2023/08/06 03:33:57;;;;;;;5.27;5.17;;;;;;;14.81;93.38;100044.53;5014436;28;20231;-70
2023/08/06 03:36:26;;;;;;;5.30;5.10;;;;;;;14.79;93.17;100044.72;5014527;28;20578;-70
2023/08/06 03:38:53;;;;;;;8.63;6.13;;;;;;;14.75;93.46;100045.31;5014506;28;20188;-70
2023/08/06 03:41:20;;;;;;;6.23;5.77;;;;;;;14.70;93.19;100035.13;5015925;28;20193;-70
2023/08/06 03:43:47;;;;;;;5.70;5.40;;;;;;;14.72;93.05;100045.72;5014360;28;20208;-70
2023/08/06 03:46:19;;;;;;;6.07;5.57;;;;;;;14.71;93.30;100041.34;5014921;28;20559;-69
2023/08/06 03:48:46;;;;;;;5.83;5.57;;;;;;;14.70;92.99;100039.66;5014339;28;20193;-69
2023/08/06 03:51:12;;;;;;;5.27;5.17;;;;;;;14.69;93.01;100041.53;5014275;28;20185;-69
2023/08/06 03:53:42;;;;;;;6.00;5.90;;;;;;;14.66;93.61;100041.09;5014084;28;20259;-69
2023/08/06 03:56:08;;;;;;;5.33;5.03;;;;;;;14.67;93.24;100042.75;5014789;28;20189;-69
2023/08/06 03:58:35;;;;;;;5.53;5.13;;;;;;;14.65;93.28;100040.25;5014138;28;20197;-69
2023/08/06 04:01:02;;;;;;;5.43;5.13;;;;;;;14.61;93.21;100034.44;5014089;28;20573;-69
2023/08/06 04:03:42;;;;;;;5.23;5.13;;;;;;;14.60;93.25;100030.06;5014192;28;20278;-70
2023/08/06 04:06:09;;;;;;;5.90;5.67;;;;;;;14.62;93.00;100035.28;5013525;28;20289;-70
2023/08/06 04:08:36;;;;;;;5.33;5.13;;;;;;;14.61;93.17;100037.13;5013935;28;20215;-69
2023/08/06 04:11:03;;;;;;;4.77;4.77;;;;;;;14.63;93.34;100024.31;5015114;28;20193;-69
2023/08/06 04:13:29;;;;;;;5.30;5.30;;;;;;;14.61;93.46;100028.22;5014829;28;20220;-70
2023/08/06 04:16:01;;;;;;;4.57;4.50;;;;;;;14.60;93.14;100034.63;5013813;28;20593;-69
2023/08/06 04:18:28;;;;;;;4.70;4.70;;;;;;;14.59;92.97;100032.97;5013792;28;20238;-69
2023/08/06 04:20:57;;;;;;;5.40;5.23;;;;;;;14.58;93.18;100039.38;5013700;28;20192;-69
2023/08/06 04:23:24;;;;;;;4.77;4.67;;;;;;;14.59;93.15;100038.34;5013607;28;20308;-69
2023/08/06 04:25:57;;;;;;;4.47;4.47;;;;;;;14.59;93.15;100032.97;5013617;28;20199;-69
2023/08/06 04:28:27;;;;;;;5.17;4.80;;;;;;;14.61;93.13;100026.38;5014184;28;20284;-69
2023/08/06 04:30:53;;;;;;;4.97;4.77;;;;;;;14.62;93.03;100036.09;5015053;28;20189;-69
2023/08/06 04:33:21;;;;;;;5.00;4.90;;;;;;;14.63;93.04;100032.41;5013310;28;20231;-70
2023/08/06 04:35:54;;;;;;;4.73;4.73;;;;;;;14.63;93.04;100034.25;5013447;28;20196;-70
2023/08/06 04:38:23;;;;;;;4.60;4.53;;;;;;;14.65;93.25;100029.50;5013400;28;20554;-70
2023/08/06 04:40:50;;;;;;;4.63;4.63;;;;;;;14.64;92.83;100035.88;5014579;28;20204;-70
2023/08/06 04:43:16;;;;;;;5.90;5.67;;;;;;;14.61;93.00;100030.91;5014488;28;20200;-70
2023/08/06 04:45:47;;;;;;;4.47;4.47;;;;;;;14.60;93.02;100030.06;5013242;28;20667;-70
2023/08/06 04:48:14;;;;;;;5.20;4.90;;;;;;;14.60;92.91;100035.44;5014464;28;20195;-70
2023/08/06 04:50:48;;;;;;;6.27;6.03;;;;;;;14.61;92.76;100034.44;5014408;28;20189;-70
2023/08/06 04:53:15;;;;;;;4.27;4.27;;;;;;;14.62;93.06;100033.41;5014239;28;20687;-70
2023/08/06 04:55:42;;;;;;;5.50;4.93;;;;;;;14.64;93.09;100031.34;5014342;28;20184;-70
2023/08/06 04:58:10;;;;;;;5.43;5.23;;;;;;;14.68;92.95;100030.97;5014264;28;20219;-70
2023/08/06 05:00:36;;;;;;;5.07;5.00;;;;;;;14.69;92.85;100028.06;5014264;28;20189;-70
2023/08/06 05:03:03;;;;;;;4.93;4.17;;;;;;;14.70;93.01;100032.44;5014130;28;20231;-70
2023/08/06 05:05:29;;;;;;;4.83;4.83;;;;;;;14.71;92.82;100038.66;5014176;28;20276;-70
2023/08/06 05:07:57;;;;;;;5.00;4.90;;;;;;;14.72;92.99;100035.78;5014127;28;20238;-70
2023/08/06 05:10:26;;;;;;;5.70;5.33;;;;;;;14.75;92.98;100039.94;5014052;28;20659;-70
2023/08/06 05:12:53;;;;;;;5.00;4.90;;;;;;;14.76;92.58;100038.91;5013770;28;20213;-70
2023/08/06 05:15:20;;;;;;;5.73;5.60;;;;;;;14.75;92.73;100038.06;5013911;28;20242;-70
2023/08/06 05:17:46;;;;;;;5.20;5.20;;;;;;;14.73;92.60;100042.78;5013957;28;20184;-70
2023/08/06 05:20:13;;;;;;;5.20;5.10;;;;;;;14.73;92.46;100042.78;5013902;28;20177;-70
2023/08/06 05:22:39;;;;;;;4.43;4.43;;;;;;;14.74;93.21;100051.69;5013880;28;20262;-70
2023/08/06 05:25:06;;;;;;;5.30;5.20;;;;;;;14.74;92.82;100049.00;5013807;28;20208;-70
2023/08/06 05:27:33;;;;;;;5.40;5.00;;;;;;;14.76;92.90;100057.75;5013808;28;20558;-70
2023/08/06 05:29:59;;;;;;;8.23;5.30;;;;;;;14.78;92.79;100061.06;5014040;28;20200;-70
2023/08/06 05:32:25;;;;;;;5.60;5.23;;;;;;;14.78;93.21;100059.19;5013641;28;20659;-70
2023/08/06 05:34:52;;;;;;;7.53;4.90;;;;;;;14.81;93.12;100061.50;5013579;28;20219;-69
2023/08/06 05:37:18;;;;;;;5.57;5.47;;;;;;;14.83;92.84;100072.91;5013971;28;20303;-69
2023/08/06 05:39:45;;;;;;;4.83;4.83;;;;;;;14.86;93.13;100060.91;5013715;28;20197;-69
2023/08/06 05:42:11;;;;;;;5.63;5.33;;;;;;;14.87;92.68;100066.09;5013630;28;20193;-69
2023/08/06 05:44:38;;;;;;;5.03;4.83;;;;;;;14.90;92.63;100067.56;5013687;28;20209;-69
2023/08/06 05:47:04;;;;;;;5.43;5.03;;;;;;;14.96;92.92;100069.47;5014138;28;20177;-69
2023/08/06 05:49:31;;;;;;;4.97;4.97;;;;;;;15.00;93.18;100070.75;5014100;28;20196;-69
2023/08/06 05:51:57;;;;;;;5.07;4.97;;;;;;;15.03;93.00;100068.50;5013563;28;20199;-69
2023/08/06 05:54:23;;;;;;;5.23;5.13;;;;;;;15.05;93.36;100071.84;5013383;28;20639;-70
2023/08/06 05:56:50;;;;;;;5.40;5.27;;;;;;;15.09;93.06;100067.72;5013745;28;20238;-70
2023/08/06 05:59:16;;;;;;;5.43;5.20;;;;;;;15.15;93.13;100076.84;5013526;28;20543;-70
2023/08/06 06:01:43;;;;;;;5.27;5.17;;;;;;;15.21;93.16;100076.06;5013466;28;20188;-70
2023/08/06 06:04:09;;;;;;;6.07;5.90;;;;;;;15.26;93.40;100078.19;5013375;28;20212;-70
2023/08/06 06:06:36;;;;;;;5.30;5.20;;;;;;;15.30;92.98;100082.97;5013723;28;20605;-70
2023/08/06 06:09:02;;;;;;;5.33;5.23;;;;;;;15.35;92.99;100080.53;5013350;28;20185;-70
2023/08/06 06:11:29;;;;;;;5.13;5.03;;;;;;;15.40;93.03;100079.94;5013209;28;20197;-69
2023/08/06 06:13:55;;;;;;;6.73;6.33;;;;;;;15.43;93.05;100085.75;5013497;28;20220;-70
2023/08/06 06:16:22;;;;;;;4.93;4.83;;;;;;;15.49;93.27;100084.94;5013598;28;20232;-70
2023/08/06 06:18:48;;;;;;;5.43;5.23;;;;;;;15.54;93.16;100093.28;5013557;28;20189;-70
2023/08/06 06:21:14;;;;;;;5.10;4.90;;;;;;;15.60;92.72;100085.44;5013268;28;20239;-69
2023/08/06 06:23:41;;;;;;;4.93;4.77;;;;;;;15.64;92.71;100090.25;5013149;28;20621;-70
2023/08/06 06:26:07;;;;;;;5.87;5.47;;;;;;;15.68;92.66;100088.81;5013227;28;20251;-70
2023/08/06 06:28:34;;;;;;;4.83;4.63;;;;;;;15.77;92.40;100082.22;5015491;28;20255;-70
2023/08/06 06:31:01;;;;;;;5.20;5.20;;;;;;;15.84;92.19;100084.94;5017014;28;20192;-70
2023/08/06 06:33:28;;;;;;;4.57;4.50;;;;;;;15.88;92.42;100081.63;5017006;28;20757;-70
2023/08/06 06:35:54;;;;;;;4.97;4.87;;;;;;;15.94;91.96;100083.53;5016885;28;20184;-70
2023/08/06 06:38:20;;;;;;;4.17;4.10;;;;;;;16.00;91.62;100082.72;5016904;28;20679;-70
2023/08/06 06:40:56;;;;;;;4.37;4.10;;;;;;;16.04;91.61;100085.03;5016859;28;20252;-70
2023/08/06 06:43:23;;;;;;;5.30;5.10;;;;;;;16.05;91.40;100090.19;5016782;28;20576;-70
2023/08/06 06:45:55;;;;;;;4.13;4.13;;;;;;;16.08;91.37;100091.66;5016755;28;20219;-70
2023/08/06 06:48:22;;;;;;;4.67;4.67;;;;;;;16.12;91.32;100087.53;5017009;28;20185;-70
2023/08/06 06:50:49;;;;;;;5.00;4.70;;;;;;;16.14;91.24;100090.84;5016708;28;20177;-70
2023/08/06 06:53:15;;;;;;;4.27;4.20;;;;;;;16.17;90.97;100090.44;5015322;28;20220;-70
2023/08/06 06:55:42;;;;;;;4.17;4.10;;;;;;;16.19;90.75;100073.03;5016824;28;20219;-70
2023/08/06 06:58:08;;;;;;;4.50;4.40;;;;;;;16.21;89.53;100080.94;5016515;28;20188;-70
2023/08/06 07:00:37;;;;;;;5.43;5.33;;;;;;;16.32;88.35;100085.72;5016421;28;20207;-70
2023/08/06 07:03:04;;;;;;;5.60;5.17;;;;;;;16.22;88.40;100086.09;5016330;28;20195;-70
2023/08/06 07:05:30;;;;;;;4.70;4.40;;;;;;;16.19;88.42;100080.28;5015110;28;20276;-70
2023/08/06 07:07:57;;;;;;;5.20;4.70;;;;;;;16.20;88.45;100079.25;5016320;28;20663;-70
2023/08/06 07:10:23;;;;;;;5.33;5.13;;;;;;;16.18;88.39;100089.41;5016315;28;20243;-70
2023/08/06 07:12:49;;;;;;;5.83;5.53;;;;;;;16.16;87.97;100083.41;5016189;28;20725;-70
2023/08/06 07:15:17;;;;;;;4.60;4.50;;;;;;;16.19;87.73;100086.50;5016413;28;20216;-70
2023/08/06 07:17:44;;;;;;;7.80;4.33;;;;;;;16.26;86.64;100086.50;5016165;28;20219;-70
2023/08/06 07:20:10;;;;;;;6.53;3.63;;;;;;;16.22;86.20;100087.97;5016379;28;20193;-70
2023/08/06 07:22:36;;;;;;;3.47;3.47;;;;;;;16.15;86.48;100087.13;5016370;28;20529;-70
2023/08/06 07:25:03;;;;;;;3.87;3.60;;;;;;;16.14;86.58;100088.16;5015941;28;20258;-70
2023/08/06 07:27:30;;;;;;;4.83;4.27;;;;;;;16.21;85.29;100089.81;5015972;28;20193;-70
2023/08/06 07:29:58;;;;;;;4.90;4.70;;;;;;;16.21;85.15;100089.81;5015940;28;20192;-70
2023/08/06 07:32:24;;;;;;;4.77;4.03;;;;;;;16.17;85.80;100088.56;5016167;28;20177;-70
2023/08/06 07:34:56;;;;;;;4.20;4.03;;;;;;;16.24;85.36;100097.53;5015627;28;20208;-70
2023/08/06 07:37:23;;;;;;;4.97;4.77;;;;;;;16.22;85.77;100102.28;5016099;28;20177;-70
2023/08/06 07:39:49;;;;;;;4.87;4.70;;;;;;;16.27;85.64;100104.38;5014807;28;20193;-70
2023/08/06 07:42:15;;;;;;;6.57;4.93;;;;;;;16.31;85.86;100100.22;5015724;28;20258;-70
2023/08/06 07:44:42;;;;;;;6.60;5.07;;;;;;;16.56;84.90;100097.78;5015606;28;20691;-70
2023/08/06 07:47:08;;;;;;;5.77;5.53;;;;;;;16.43;83.52;100095.88;5015905;28;20181;-69
2023/08/06 07:49:35;;;;;;;5.80;5.50;;;;;;;16.54;83.38;100105.25;5015822;28;20192;-69
2023/08/06 07:52:02;;;;;;;5.97;5.60;;;;;;;16.62;82.86;100105.09;5015741;28;20603;-70
2023/08/06 07:54:29;;;;;;;5.57;5.27;;;;;;;16.56;82.88;100108.56;5015318;28;20216;-69
2023/08/06 07:56:55;;;;;;;4.67;4.47;;;;;;;16.60;84.43;100109.84;5015755;28;20594;-70
2023/08/06 07:59:22;;;;;;;6.90;5.97;;;;;;;16.75;83.79;100113.22;5015648;28;20227;-70
2023/08/06 08:01:48;;;;;;;5.77;5.07;;;;;;;16.83;82.98;100115.72;5015683;28;20181;-70
2023/08/06 08:04:15;;;;;;;4.97;4.83;;;;;;;16.77;83.48;100108.41;5015739;28;20610;-70
2023/08/06 08:06:41;;;;;;;6.00;5.90;;;;;;;16.84;82.17;100109.28;5015271;28;20212;-70
2023/08/06 08:09:08;;;;;;;6.10;5.87;;;;;;;16.87;81.61;100116.94;5015086;28;20188;-70
2023/08/06 08:11:34;;;;;;;5.30;5.20;;;;;;;16.88;82.04;100114.06;5014897;28;20200;-70
2023/08/06 08:14:01;;;;;;;4.33;4.33;;;;;;;16.90;81.73;100111.97;5015193;28;20220;-70
2023/08/06 08:16:27;;;;;;;6.77;5.83;;;;;;;16.88;82.20;100108.66;5014977;28;20189;-70
2023/08/06 08:18:54;;;;;;;5.70;4.90;;;;;;;16.95;82.39;100118.63;5015222;28;20177;-70
2023/08/06 08:21:20;;;;;;;15.47;4.60;;;;;;;16.92;82.25;100113.63;5015185;28;20188;-70
2023/08/06 08:23:46;;;;;;;4.53;4.43;;;;;;;16.97;82.17;100119.25;5014873;28;20767;-70
2023/08/06 08:26:13;;;;;;;4.97;4.80;;;;;;;16.89;82.52;100114.88;5015462;28;20190;-70
2023/08/06 08:28:40;;;;;;;4.90;4.73;;;;;;;16.93;82.53;100124.22;5015052;28;20177;-70
2023/08/06 08:31:11;;;;;;;10.03;4.43;;;;;;;16.90;82.84;100121.94;5015394;28;20612;-70
2023/08/06 08:33:38;;;;;;;5.10;4.97;;;;;;;16.88;83.02;100121.31;5014929;28;20571;-70
2023/08/06 08:36:04;;;;;;;5.80;4.63;;;;;;;16.83;83.46;100121.94;5014983;28;20243;-70
2023/08/06 08:38:31;;;;;;;4.77;4.63;;;;;;;16.82;83.82;100114.03;5015006;28;20243;-70
2023/08/06 08:40:58;;;;;;;5.90;5.17;;;;;;;16.81;83.96;100123.16;5014612;28;20188;-70
2023/08/06 08:43:24;;;;;;;5.40;5.00;;;;;;;16.84;84.19;100120.06;5014901;28;20579;-70
2023/08/06 08:45:51;;;;;;;6.10;5.80;;;;;;;16.94;83.77;100122.34;5014534;28;20714;-70
2023/08/06 08:48:19;;;;;;;5.37;5.27;;;;;;;16.90;83.81;100121.94;5014742;28;20653;-70
2023/08/06 08:50:48;;;;;;;5.53;5.43;;;;;;;17.01;82.93;100121.31;5014047;28;20275;-70
2023/08/06 08:53:16;;;;;;;6.03;5.83;;;;;;;16.99;82.61;100118.00;5014300;28;20205;-70
2023/08/06 08:55:47;;;;;;;7.10;4.93;;;;;;;17.05;81.58;100129.84;5014215;28;20220;-70
2023/08/06 08:58:14;;;;;;;6.63;6.20;;;;;;;16.96;81.41;100141.88;5014595;28;20176;-70
2023/08/06 09:00:42;;;;;;;4.80;4.80;;;;;;;16.95;81.36;100124.00;5014243;28;20196;-70
2023/08/06 09:03:09;;;;;;;5.13;5.10;;;;;;;16.87;81.40;100125.06;5014416;28;20271;-70
2023/08/06 09:05:40;;;;;;;5.53;5.13;;;;;;;16.81;81.82;100131.25;5014170;28;20180;-70
2023/08/06 09:08:10;;;;;;;5.07;4.97;;;;;;;16.79;82.33;100127.97;5014398;28;20184;-70
2023/08/06 09:10:38;;;;;;;5.27;4.97;;;;;;;16.80;82.59;100127.72;5014632;28;20227;-70
2023/08/06 09:13:06;;;;;;;5.40;5.17;;;;;;;16.96;81.86;100131.09;5013853;28;20263;-70
2023/08/06 09:15:33;;;;;;;5.57;5.47;;;;;;;17.05;81.36;100138.78;5013899;28;20212;-70
2023/08/06 09:17:59;;;;;;;5.90;5.60;;;;;;;17.13;80.06;100135.88;5014254;28;20191;-70
2023/08/06 09:20:26;;;;;;;4.77;4.57;;;;;;;17.04;80.93;100134.41;5013934;28;20203;-69
2023/08/06 09:22:53;;;;;;;5.40;5.10;;;;;;;17.13;80.94;100137.72;5013781;28;20196;-69
2023/08/06 09:25:26;;;;;;;5.70;5.40;;;;;;;17.22;79.49;100145.44;5013796;28;20198;-69
2023/08/06 09:27:52;;;;;;;4.73;4.37;;;;;;;17.13;80.08;100138.56;5013857;28;20235;-69
2023/08/06 09:30:32;;;;;;;5.10;4.67;;;;;;;17.20;80.00;100150.19;5013810;28;20717;-69
2023/08/06 09:32:59;;;;;;;5.37;5.27;;;;;;;17.32;80.43;100147.69;5013727;28;20673;-69
2023/08/06 09:35:30;;;;;;;6.30;5.90;;;;;;;17.22;79.87;100153.53;5014735;28;20566;-69
2023/08/06 09:38:10;;;;;;;6.07;5.53;;;;;;;17.17;80.63;100149.78;5013718;28;20188;-69
2023/08/06 09:40:38;;;;;;;6.53;6.40;;;;;;;17.29;80.13;100146.25;5013999;28;20550;-69
2023/08/06 09:43:05;;;;;;;6.70;6.50;;;;;;;17.46;80.71;100148.50;5013574;28;20185;-69
2023/08/06 09:45:36;;;;;;;6.10;5.90;;;;;;;17.48;80.46;100149.13;5013912;28;20234;-69
2023/08/06 09:48:04;;;;;;;6.27;5.97;;;;;;;17.40;80.57;100152.06;5013839;28;20243;-69
2023/08/06 09:50:32;;;;;;;6.97;6.67;;;;;;;17.42;80.53;100148.09;5013569;28;20192;-69
2023/08/06 09:53:04;;;;;;;7.83;7.07;;;;;;;17.52;79.84;100150.38;5013753;28;20200;-69
2023/08/06 09:55:31;;;;;;;7.17;7.07;;;;;;;17.50;79.20;100149.75;5013746;28;20627;-69
2023/08/06 09:57:59;;;;;;;7.30;7.20;;;;;;;17.52;79.05;100151.22;5013455;28;20239;-69
2023/08/06 10:00:26;;;;;;;6.30;6.20;;;;;;;17.51;79.47;100151.41;5013431;28;20239;-69
2023/08/06 10:02:55;;;;;;;6.60;6.20;;;;;;;17.44;80.34;100159.50;5014914;28;20185;-70
2023/08/06 10:05:23;;;;;;;6.23;6.03;;;;;;;17.41;80.88;100159.94;5017563;28;20195;-70
2023/08/06 10:07:50;;;;;;;6.87;6.60;;;;;;;17.36;81.26;100160.56;5017802;28;20173;-70
2023/08/06 10:10:19;;;;;;;5.33;5.23;;;;;;;17.32;81.45;100167.44;5017776;28;20177;-70
2023/08/06 10:12:51;;;;;;;6.10;5.90;;;;;;;17.27;81.99;100159.13;5017372;28;20200;-70
2023/08/06 10:15:25;;;;;;;5.03;5.03;;;;;;;17.22;82.57;100160.78;5017525;28;20196;-70
2023/08/06 10:17:56;;;;;;;5.90;5.70;;;;;;;17.20;82.63;100160.16;5017638;28;20176;-70
2023/08/06 10:20:23;;;;;;;5.37;5.33;;;;;;;17.20;82.97;100155.59;5017560;28;20651;-70
2023/08/06 10:23:02;;;;;;;6.83;6.70;;;;;;;17.25;83.31;100157.66;5017115;28;20192;-70
2023/08/06 10:25:34;;;;;;;5.80;5.80;;;;;;;17.26;82.70;100154.78;5017189;28;20179;-70
2023/08/06 10:28:08;;;;;;;6.00;5.90;;;;;;;17.26;82.84;100160.19;5017428;28;20180;-70
2023/08/06 10:30:42;;;;;;;8.97;6.67;;;;;;;17.21;83.11;100149.16;5017080;28;20227;-70
2023/08/06 10:33:08;;;;;;;7.23;7.07;;;;;;;17.15;83.45;100147.28;5017227;28;20713;-70
2023/08/06 10:35:49;;;;;;;7.30;7.00;;;;;;;17.05;84.09;100146.88;5016924;28;20539;-70
2023/08/06 10:38:18;;;;;;;6.50;6.17;;;;;;;16.97;84.69;100149.78;5017231;28;20173;-70
2023/08/06 10:41:01;;;;;;;6.33;6.13;;;;;;;16.97;85.22;100152.50;5016837;28;20193;-70
2023/08/06 10:43:43;;;;;;;6.57;6.47;;;;;;;16.94;85.20;100150.19;5016797;28;20214;-70
2023/08/06 10:46:11;;;;;;;6.83;6.63;;;;;;;16.91;85.47;100153.31;5017095;28;20184;-70
2023/08/06 10:48:39;;;;;;;6.40;6.40;;;;;;;17.04;85.59;100152.47;5016721;28;20554;-70
2023/08/06 10:51:11;;;;;;;7.77;7.47;;;;;;;17.10;85.76;100151.66;5016715;28;20188;-70
2023/08/06 10:53:41;;;;;;;7.90;7.20;;;;;;;17.09;85.55;100158.94;5017000;28;20227;-70
2023/08/06 10:56:14;;;;;;;7.87;7.77;;;;;;;17.04;84.61;100160.59;5016875;28;20259;-70
2023/08/06 10:58:41;;;;;;;9.00;8.43;;;;;;;17.02;85.99;100168.88;5016542;28;20722;-70
2023/08/06 11:01:09;;;;;;;9.50;8.87;;;;;;;17.07;85.38;100174.50;5016420;28;20239;-70
2023/08/06 11:03:36;;;;;;;9.37;8.73;;;;;;;16.99;86.24;100180.09;5016322;28;20212;-70
2023/08/06 11:06:02;;;;;;;9.20;8.77;;;;;;;16.88;87.43;100178.03;5015306;28;20247;-70
2023/08/06 11:08:34;;;;;;;10.67;10.17;;;;;;;16.88;88.14;100180.72;5014029;28;20188;-70
2023/08/06 11:11:12;;;;;;;11.83;11.10;;;;;;;16.80;88.77;100189.03;5015306;28;20242;-70
2023/08/06 11:13:49;;;;;;;11.73;10.90;;;;;;;16.87;88.48;100184.44;5015899;28;20703;-71
2023/08/06 11:16:24;;;;;;;12.90;11.60;;;;;;;16.62;88.58;100188.75;5015247;28;20192;-72
2023/08/06 11:18:52;;;;;;;12.33;11.73;;;;;;;16.45;88.76;100183.72;5016199;28;20180;-72
2023/08/06 11:21:21;;;;;;;11.97;11.47;;;;;;;16.31;89.66;100181.16;5016098;28;20239;-72
2023/08/06 11:23:48;;;;;;;15.70;12.50;;;;;;;16.23;89.78;100179.47;5016058;28;20212;-72
2023/08/06 11:26:19;;;;;;;14.07;12.70;;;;;;;16.22;90.23;100179.66;5016333;28;20181;-72
2023/08/06 11:28:46;;;;;;;11.10;10.60;;;;;;;16.28;90.13;100181.56;5016301;28;20180;-72